sensor_id;sensor_type;location;lat;lon;timestamp;pressure;altitude;pressure_sealevel;temperature;humidity
61757;BME280;57225;61.460;24.060;2023-02-05T00:02:25;101833.03;;;-14.18;100.00
61757;BME280;57225;61.460;24.060;2023-02-05T00:05:10;101828.25;;;-14.30;100.00
61757;BME280;57225;61.460;24.060;2023-02-05T00:07:54;101822.25;;;-14.32;100.00
61757;BME280;57225;61.460;24.060;2023-02-05T00:10:38;101823.94;;;-14.24;100.00
61757;BME280;57225;61.460;24.060;2023-02-05T00:13:23;101814.88;;;-14.23;100.00
61757;BME280;57225;61.460;24.060;2023-02-05T00:16:10;101812.41;;;-14.24;100.00
61757;BME280;57225;61.460;24.060;2023-02-05T00:18:55;101809.94;;;-14.19;100.00
61757;BME280;57225;61.460;24.060;2023-02-05T00:21:39;101798.06;;;-14.10;100.00
61757;BME280;57225;61.460;24.060;2023-02-05T00:24:24;101801.97;;;-14.06;100.00
61757;BME280;57225;61.460;24.060;2023-02-05T00:27:09;101791.47;;;-14.01;100.00
61757;BME280;57225;61.460;24.060;2023-02-05T00:29:53;101774.78;;;-14.10;100.00
61757;BME280;57225;61.460;24.060;2023-02-05T00:32:37;101785.91;;;-14.06;100.00
61757;BME280;57225;61.460;24.060;2023-02-05T00:35:22;101782.22;;;-13.99;100.00
61757;BME280;57225;61.460;24.060;2023-02-05T00:38:06;101781.22;;;-13.91;100.00
61757;BME280;57225;61.460;24.060;2023-02-05T00:40:51;101772.56;;;-13.87;100.00
61757;BME280;57225;61.460;24.060;2023-02-05T00:43:36;101759.56;;;-13.90;100.00
61757;BME280;57225;61.460;24.060;2023-02-05T00:46:20;101761.44;;;-13.83;100.00
61757;BME280;57225;61.460;24.060;2023-02-05T00:49:05;101746.63;;;-13.86;100.00
61757;BME280;57225;61.460;24.060;2023-02-05T00:51:49;101748.03;;;-13.90;100.00
61757;BME280;57225;61.460;24.060;2023-02-05T00:54:33;101741.63;;;-14.02;100.00
61757;BME280;57225;61.460;24.060;2023-02-05T00:57:18;101736.66;;;-14.05;100.00
61757;BME280;57225;61.460;24.060;2023-02-05T01:00:07;101730.88;;;-14.09;100.00
61757;BME280;57225;61.460;24.060;2023-02-05T01:02:53;101739.56;;;-14.00;100.00
61757;BME280;57225;61.460;24.060;2023-02-05T01:05:38;101721.00;;;-14.02;100.00
61757;BME280;57225;61.460;24.060;2023-02-05T01:08:22;101724.72;;;-13.96;100.00
61757;BME280;57225;61.460;24.060;2023-02-05T01:11:08;101725.16;;;-13.93;100.00
61757;BME280;57225;61.460;24.060;2023-02-05T01:13:54;101721.03;;;-13.95;100.00
61757;BME280;57225;61.460;24.060;2023-02-05T01:16:42;101714.00;;;-13.96;100.00
61757;BME280;57225;61.460;24.060;2023-02-05T01:19:26;101715.69;;;-13.89;100.00
61757;BME280;57225;61.460;24.060;2023-02-05T01:22:11;101711.34;;;-13.96;100.00
61757;BME280;57225;61.460;24.060;2023-02-05T01:24:55;101705.38;;;-13.98;100.00
61757;BME280;57225;61.460;24.060;2023-02-05T01:27:39;101700.41;;;-14.01;100.00
61757;BME280;57225;61.460;24.060;2023-02-05T01:30:24;101691.34;;;-14.00;100.00
61757;BME280;57225;61.460;24.060;2023-02-05T01:33:08;101689.69;;;-14.01;100.00
61757;BME280;57225;61.460;24.060;2023-02-05T01:35:53;101681.84;;;-14.03;100.00
61757;BME280;57225;61.460;24.060;2023-02-05T01:38:37;101679.78;;;-14.07;100.00
61757;BME280;57225;61.460;24.060;2023-02-05T01:41:21;101674.88;;;-14.10;100.00
61757;BME280;57225;61.460;24.060;2023-02-05T01:46:57;101664.97;;;-14.10;100.00
61757;BME280;57225;61.460;24.060;2023-02-05T01:49:42;101657.97;;;-14.11;100.00
61757;BME280;57225;61.460;24.060;2023-02-05T01:52:27;101661.03;;;-14.14;100.00
61757;BME280;57225;61.460;24.060;2023-02-05T01:55:11;101657.97;;;-14.04;100.00
61757;BME280;57225;61.460;24.060;2023-02-05T01:57:58;101654.25;;;-14.10;100.00
61757;BME280;57225;61.460;24.060;2023-02-05T02:00:43;101646.44;;;-14.11;100.00
61757;BME280;57225;61.460;24.060;2023-02-05T02:03:30;101640.66;;;-14.08;100.00
61757;BME280;57225;61.460;24.060;2023-02-05T02:06:15;101635.94;;;-14.06;100.00
61757;BME280;57225;61.460;24.060;2023-02-05T02:09:00;101630.78;;;-14.01;100.00
61757;BME280;57225;61.460;24.060;2023-02-05T02:11:45;101625.84;;;-13.98;100.00
61757;BME280;57225;61.460;24.060;2023-02-05T02:14:31;101623.38;;;-13.99;100.00
61757;BME280;57225;61.460;24.060;2023-02-05T02:17:17;101614.31;;;-13.98;100.00
61757;BME280;57225;61.460;24.060;2023-02-05T02:20:08;101599.06;;;-14.04;100.00
61757;BME280;57225;61.460;24.060;2023-02-05T02:23:32;101607.69;;;-14.02;100.00
61757;BME280;57225;61.460;24.060;2023-02-05T02:32:43;101597.81;;;-13.95;100.00
61757;BME280;57225;61.460;24.060;2023-02-05T02:35:43;101587.72;;;-13.93;100.00
61757;BME280;57225;61.460;24.060;2023-02-05T02:41:38;101588.94;;;-13.89;100.00
61757;BME280;57225;61.460;24.060;2023-02-05T02:44:40;101585.03;;;-13.93;100.00
61757;BME280;57225;61.460;24.060;2023-02-05T02:47:48;101579.25;;;-13.97;100.00
61757;BME280;57225;61.460;24.060;2023-02-05T02:50:40;101574.72;;;-14.03;100.00
61757;BME280;57225;61.460;24.060;2023-02-05T02:53:39;101560.94;;;-14.06;100.00
61757;BME280;57225;61.460;24.060;2023-02-05T02:56:26;101560.94;;;-14.13;100.00
61757;BME280;57225;61.460;24.060;2023-02-05T02:59:15;101567.72;;;-14.23;100.00
61757;BME280;57225;61.460;24.060;2023-02-05T03:02:03;101557.41;;;-14.27;100.00
61757;BME280;57225;61.460;24.060;2023-02-05T03:04:55;101563.19;;;-14.30;100.00
61757;BME280;57225;61.460;24.060;2023-02-05T03:07:47;101552.06;;;-14.46;100.00
61757;BME280;57225;61.460;24.060;2023-02-05T03:10:43;101548.38;;;-14.39;100.00
61757;BME280;57225;61.460;24.060;2023-02-05T03:13:29;101540.31;;;-14.32;100.00
61757;BME280;57225;61.460;24.060;2023-02-05T03:16:15;101533.31;;;-14.27;100.00
61757;BME280;57225;61.460;24.060;2023-02-05T03:19:01;101531.91;;;-14.22;100.00
61757;BME280;57225;61.460;24.060;2023-02-05T03:21:53;101527.16;;;-14.14;100.00
61757;BME280;57225;61.460;24.060;2023-02-05T03:24:38;101523.25;;;-14.11;100.00
61757;BME280;57225;61.460;24.060;2023-02-05T03:27:23;101513.75;;;-14.20;100.00
61757;BME280;57225;61.460;24.060;2023-02-05T03:30:08;101519.31;;;-14.15;100.00
61757;BME280;57225;61.460;24.060;2023-02-05T03:36:07;101515.63;;;-14.14;100.00
61757;BME280;57225;61.460;24.060;2023-02-05T03:42:16;101517.88;;;-14.11;100.00
61757;BME280;57225;61.460;24.060;2023-02-05T03:51:48;101483.69;;;-14.09;100.00
61757;BME280;57225;61.460;24.060;2023-02-05T03:54:50;101497.88;;;-14.02;100.00
61757;BME280;57225;61.460;24.060;2023-02-05T03:57:58;101478.13;;;-14.08;100.00
61757;BME280;57225;61.460;24.060;2023-02-05T04:00:44;101486.97;;;-14.01;100.00
61757;BME280;57225;61.460;24.060;2023-02-05T04:03:29;101489.44;;;-13.93;100.00
61757;BME280;57225;61.460;24.060;2023-02-05T04:06:13;101483.66;;;-13.90;100.00
61757;BME280;57225;61.460;24.060;2023-02-05T04:08:57;101473.34;;;-13.86;100.00
61757;BME280;57225;61.460;24.060;2023-02-05T04:11:42;101471.25;;;-13.84;100.00
61757;BME280;57225;61.460;24.060;2023-02-05T04:14:26;101458.69;;;-13.77;100.00
61757;BME280;57225;61.460;24.060;2023-02-05T04:17:11;101466.28;;;-13.61;100.00
61757;BME280;57225;61.460;24.060;2023-02-05T04:19:55;101448.75;;;-13.63;100.00
61757;BME280;57225;61.460;24.060;2023-02-05T04:22:39;101445.03;;;-13.56;100.00
61757;BME280;57225;61.460;24.060;2023-02-05T04:25:24;101444.00;;;-13.55;100.00
61757;BME280;57225;61.460;24.060;2023-02-05T04:28:09;101450.16;;;-13.48;100.00
61757;BME280;57225;61.460;24.060;2023-02-05T04:30:53;101433.56;;;-13.31;100.00
61757;BME280;57225;61.460;24.060;2023-02-05T04:33:38;101440.38;;;-12.97;100.00
61757;BME280;57225;61.460;24.060;2023-02-05T04:36:23;101440.66;;;-12.81;100.00
61757;BME280;57225;61.460;24.060;2023-02-05T04:39:07;101430.25;;;-12.71;100.00
61757;BME280;57225;61.460;24.060;2023-02-05T04:41:52;101410.97;;;-12.86;100.00
61757;BME280;57225;61.460;24.060;2023-02-05T04:44:36;101428.88;;;-12.80;100.00
61757;BME280;57225;61.460;24.060;2023-02-05T04:47:20;101426.81;;;-12.78;100.00
61757;BME280;57225;61.460;24.060;2023-02-05T04:50:05;101437.22;;;-12.63;100.00
61757;BME280;57225;61.460;24.060;2023-02-05T04:52:49;101423.38;;;-12.60;100.00
61757;BME280;57225;61.460;24.060;2023-02-05T04:55:33;101425.50;;;-12.69;100.00
61757;BME280;57225;61.460;24.060;2023-02-05T04:58:18;101427.34;;;-12.69;100.00
61757;BME280;57225;61.460;24.060;2023-02-05T05:01:08;101412.91;;;-12.68;100.00
61757;BME280;57225;61.460;24.060;2023-02-05T05:03:54;101400.16;;;-12.73;100.00
61757;BME280;57225;61.460;24.060;2023-02-05T05:06:38;101414.50;;;-12.60;100.00
61757;BME280;57225;61.460;24.060;2023-02-05T05:09:23;101401.25;;;-12.55;100.00
61757;BME280;57225;61.460;24.060;2023-02-05T05:12:08;101397.47;;;-12.48;100.00
61757;BME280;57225;61.460;24.060;2023-02-05T05:14:52;101396.94;;;-12.38;100.00
61757;BME280;57225;61.460;24.060;2023-02-05T05:17:36;101370.69;;;-12.36;100.00
61757;BME280;57225;61.460;24.060;2023-02-05T05:20:21;101377.31;;;-12.14;100.00
61757;BME280;57225;61.460;24.060;2023-02-05T05:23:05;101383.94;;;-12.16;100.00
61757;BME280;57225;61.460;24.060;2023-02-05T05:25:50;101365.63;;;-12.26;100.00
61757;BME280;57225;61.460;24.060;2023-02-05T05:28:34;101380.00;;;-12.14;100.00
61757;BME280;57225;61.460;24.060;2023-02-05T05:31:19;101367.28;;;-12.07;100.00
61757;BME280;57225;61.460;24.060;2023-02-05T05:34:03;101365.06;;;-11.92;100.00
61757;BME280;57225;61.460;24.060;2023-02-05T05:36:48;101356.69;;;-11.84;100.00
61757;BME280;57225;61.460;24.060;2023-02-05T05:39:32;101366.19;;;-11.69;100.00
61757;BME280;57225;61.460;24.060;2023-02-05T05:42:36;101356.34;;;-11.57;100.00
61757;BME280;57225;61.460;24.060;2023-02-05T05:45:39;101361.50;;;-11.44;100.00
61757;BME280;57225;61.460;24.060;2023-02-05T05:48:24;101353.00;;;-11.41;100.00
61757;BME280;57225;61.460;24.060;2023-02-05T05:51:08;101365.22;;;-11.27;100.00
61757;BME280;57225;61.460;24.060;2023-02-05T05:53:53;101360.41;;;-11.25;100.00
61757;BME280;57225;61.460;24.060;2023-02-05T05:56:38;101352.06;;;-11.05;100.00
61757;BME280;57225;61.460;24.060;2023-02-05T05:59:22;101352.56;;;-10.96;100.00
61757;BME280;57225;61.460;24.060;2023-02-05T06:02:06;101344.94;;;-11.00;100.00
61757;BME280;57225;61.460;24.060;2023-02-05T06:04:51;101342.13;;;-11.05;100.00
61757;BME280;57225;61.460;24.060;2023-02-05T06:07:36;101331.13;;;-11.03;100.00
61757;BME280;57225;61.460;24.060;2023-02-05T06:10:20;101322.75;;;-11.25;100.00
61757;BME280;57225;61.460;24.060;2023-02-05T06:13:04;101334.44;;;-11.31;100.00
61757;BME280;57225;61.460;24.060;2023-02-05T06:15:49;101323.75;;;-11.38;100.00
61757;BME280;57225;61.460;24.060;2023-02-05T06:18:33;101323.41;;;-11.41;100.00
61757;BME280;57225;61.460;24.060;2023-02-05T06:21:18;101322.25;;;-11.45;100.00
61757;BME280;57225;61.460;24.060;2023-02-05T06:24:02;101316.31;;;-11.24;100.00
61757;BME280;57225;61.460;24.060;2023-02-05T06:26:47;101299.53;;;-11.08;100.00
61757;BME280;57225;61.460;24.060;2023-02-05T06:29:31;101304.94;;;-10.73;100.00
61757;BME280;57225;61.460;24.060;2023-02-05T06:32:15;101287.94;;;-10.27;100.00
61757;BME280;57225;61.460;24.060;2023-02-05T06:35:00;101278.13;;;-10.04;100.00
61757;BME280;57225;61.460;24.060;2023-02-05T06:55:33;101249.94;;;-8.90;100.00
61757;BME280;57225;61.460;24.060;2023-02-05T06:58:18;101237.00;;;-8.71;100.00
61757;BME280;57225;61.460;24.060;2023-02-05T07:01:03;101226.88;;;-8.42;100.00
61757;BME280;57225;61.460;24.060;2023-02-05T07:03:47;101216.59;;;-8.40;100.00
61757;BME280;57225;61.460;24.060;2023-02-05T07:06:32;101237.94;;;-8.22;100.00
61757;BME280;57225;61.460;24.060;2023-02-05T07:09:17;101233.84;;;-8.03;100.00
61757;BME280;57225;61.460;24.060;2023-02-05T07:12:01;101230.41;;;-7.93;100.00
61757;BME280;57225;61.460;24.060;2023-02-05T07:14:46;101224.22;;;-7.89;100.00
61757;BME280;57225;61.460;24.060;2023-02-05T07:17:30;101211.06;;;-7.80;100.00
61757;BME280;57225;61.460;24.060;2023-02-05T07:20:15;101202.19;;;-7.76;100.00
61757;BME280;57225;61.460;24.060;2023-02-05T07:22:59;101213.19;;;-7.60;100.00
61757;BME280;57225;61.460;24.060;2023-02-05T07:25:44;101179.63;;;-7.59;100.00
61757;BME280;57225;61.460;24.060;2023-02-05T07:28:29;101201.44;;;-7.39;100.00
61757;BME280;57225;61.460;24.060;2023-02-05T07:31:15;101202.16;;;-7.22;100.00
61757;BME280;57225;61.460;24.060;2023-02-05T07:34:01;101195.19;;;-7.08;100.00
61757;BME280;57225;61.460;24.060;2023-02-05T07:36:49;101185.06;;;-6.85;100.00
61757;BME280;57225;61.460;24.060;2023-02-05T07:39:34;101184.47;;;-6.93;100.00
61757;BME280;57225;61.460;24.060;2023-02-05T07:42:19;101166.91;;;-6.90;100.00
61757;BME280;57225;61.460;24.060;2023-02-05T07:45:04;101170.47;;;-6.79;100.00
61757;BME280;57225;61.460;24.060;2023-02-05T07:47:48;101163.50;;;-6.70;100.00
61757;BME280;57225;61.460;24.060;2023-02-05T07:50:33;101171.47;;;-6.43;100.00
61757;BME280;57225;61.460;24.060;2023-02-05T07:53:18;101158.72;;;-6.38;100.00
61757;BME280;57225;61.460;24.060;2023-02-05T07:56:03;101148.44;;;-6.36;100.00
61757;BME280;57225;61.460;24.060;2023-02-05T07:58:48;101144.19;;;-6.17;100.00
61757;BME280;57225;61.460;24.060;2023-02-05T08:01:33;101158.88;;;-5.92;100.00
61757;BME280;57225;61.460;24.060;2023-02-05T08:04:17;101152.63;;;-5.93;100.00
61757;BME280;57225;61.460;24.060;2023-02-05T08:07:02;101155.38;;;-5.73;100.00
61757;BME280;57225;61.460;24.060;2023-02-05T08:09:47;101143.72;;;-5.53;100.00
61757;BME280;57225;61.460;24.060;2023-02-05T08:12:31;101148.31;;;-5.48;100.00
61757;BME280;57225;61.460;24.060;2023-02-05T08:15:16;101137.47;;;-5.38;100.00
61757;BME280;57225;61.460;24.060;2023-02-05T08:18:00;101118.69;;;-5.24;100.00
61757;BME280;57225;61.460;24.060;2023-02-05T08:20:44;101121.16;;;-5.13;100.00
61757;BME280;57225;61.460;24.060;2023-02-05T08:23:29;101119.47;;;-4.99;98.12
61757;BME280;57225;61.460;24.060;2023-02-05T08:26:14;101117.28;;;-4.81;97.25
61757;BME280;57225;61.460;24.060;2023-02-05T08:28:58;101135.72;;;-4.73;97.55
61757;BME280;57225;61.460;24.060;2023-02-05T08:31:43;101130.50;;;-4.60;96.48
61757;BME280;57225;61.460;24.060;2023-02-05T08:34:27;101127.00;;;-4.65;96.45
61757;BME280;57225;61.460;24.060;2023-02-05T08:37:12;101139.16;;;-4.48;96.31
61757;BME280;57225;61.460;24.060;2023-02-05T08:39:57;101130.97;;;-4.37;95.27
61757;BME280;57225;61.460;24.060;2023-02-05T08:42:41;101113.00;;;-4.33;94.22
61757;BME280;57225;61.460;24.060;2023-02-05T08:45:31;101108.09;;;-4.31;94.05
61757;BME280;57225;61.460;24.060;2023-02-05T08:48:15;101104.75;;;-4.18;93.26
61757;BME280;57225;61.460;24.060;2023-02-05T08:51:00;101107.75;;;-4.20;93.34
61757;BME280;57225;61.460;24.060;2023-02-05T08:53:44;101108.72;;;-4.00;92.52
61757;BME280;57225;61.460;24.060;2023-02-05T08:56:29;101091.63;;;-4.06;91.86
61757;BME280;57225;61.460;24.060;2023-02-05T08:59:14;101098.31;;;-3.88;91.48
61757;BME280;57225;61.460;24.060;2023-02-05T09:01:58;101049.06;;;-3.97;91.08
61757;BME280;57225;61.460;24.060;2023-02-05T09:04:43;101083.16;;;-3.66;90.50
61757;BME280;57225;61.460;24.060;2023-02-05T09:07:27;101080.97;;;-3.63;90.37
61757;BME280;57225;61.460;24.060;2023-02-05T09:10:12;101073.06;;;-3.65;90.84
61757;BME280;57225;61.460;24.060;2023-02-05T09:12:56;101079.88;;;-3.62;91.13
61757;BME280;57225;61.460;24.060;2023-02-05T09:15:43;101076.53;;;-3.54;91.21
61757;BME280;57225;61.460;24.060;2023-02-05T09:18:28;101069.47;;;-3.55;91.60
61757;BME280;57225;61.460;24.060;2023-02-05T09:21:13;101052.56;;;-3.57;92.20
61757;BME280;57225;61.460;24.060;2023-02-05T09:23:57;101077.78;;;-3.42;91.99
61757;BME280;57225;61.460;24.060;2023-02-05T09:26:42;101068.78;;;-3.42;92.54
61757;BME280;57225;61.460;24.060;2023-02-05T09:29:27;101059.28;;;-3.45;93.44
61757;BME280;57225;61.460;24.060;2023-02-05T09:32:12;101068.78;;;-3.42;93.99
61757;BME280;57225;61.460;24.060;2023-02-05T09:34:57;101060.63;;;-3.42;94.41
61757;BME280;57225;61.460;24.060;2023-02-05T09:37:41;101065.25;;;-3.43;94.78
61757;BME280;57225;61.460;24.060;2023-02-05T09:40:31;101064.16;;;-3.42;95.50
61757;BME280;57225;61.460;24.060;2023-02-05T09:43:53;101070.16;;;-3.45;96.43
61757;BME280;57225;61.460;24.060;2023-02-05T09:47:03;101047.22;;;-3.39;96.91
61757;BME280;57225;61.460;24.060;2023-02-05T09:52:47;101045.38;;;-3.43;98.46
61757;BME280;57225;61.460;24.060;2023-02-05T09:55:41;101046.34;;;-3.34;98.72
61757;BME280;57225;61.460;24.060;2023-02-05T09:58:29;101042.63;;;-3.43;99.31
61757;BME280;57225;61.460;24.060;2023-02-05T10:04:22;101042.03;;;-3.35;100.00
61757;BME280;57225;61.460;24.060;2023-02-05T10:10:42;101031.56;;;-3.28;100.00
61757;BME280;57225;61.460;24.060;2023-02-05T10:13:34;101031.53;;;-3.23;100.00
61757;BME280;57225;61.460;24.060;2023-02-05T10:16:33;101019.00;;;-3.24;100.00
61757;BME280;57225;61.460;24.060;2023-02-05T10:19:30;101021.06;;;-3.16;100.00
61757;BME280;57225;61.460;24.060;2023-02-05T10:22:30;101029.16;;;-3.06;100.00
61757;BME280;57225;61.460;24.060;2023-02-05T10:25:57;101010.97;;;-3.10;100.00
61757;BME280;57225;61.460;24.060;2023-02-05T10:28:54;101007.34;;;-3.06;100.00
61757;BME280;57225;61.460;24.060;2023-02-05T10:37:51;100997.25;;;-3.05;100.00
61757;BME280;57225;61.460;24.060;2023-02-05T10:40:38;100998.63;;;-3.08;100.00
61757;BME280;57225;61.460;24.060;2023-02-05T10:43:38;100988.59;;;-2.89;100.00
61757;BME280;57225;61.460;24.060;2023-02-05T10:46:31;100991.66;;;-2.95;100.00
61757;BME280;57225;61.460;24.060;2023-02-05T10:49:41;100978.78;;;-2.90;100.00
61757;BME280;57225;61.460;24.060;2023-02-05T10:52:27;100979.84;;;-2.86;100.00
61757;BME280;57225;61.460;24.060;2023-02-05T10:55:12;100968.31;;;-2.83;100.00
61757;BME280;57225;61.460;24.060;2023-02-05T10:57:57;100974.38;;;-2.86;100.00
61757;BME280;57225;61.460;24.060;2023-02-05T11:00:43;100974.38;;;-2.86;100.00
61757;BME280;57225;61.460;24.060;2023-02-05T11:03:28;100964.50;;;-2.81;100.00
61757;BME280;57225;61.460;24.060;2023-02-05T11:06:12;100960.59;;;-2.75;100.00
61757;BME280;57225;61.460;24.060;2023-02-05T11:09:00;100953.00;;;-2.78;100.00
61757;BME280;57225;61.460;24.060;2023-02-05T11:11:50;100949.59;;;-2.70;100.00
61757;BME280;57225;61.460;24.060;2023-02-05T11:14:37;100932.38;;;-2.85;100.00
61757;BME280;57225;61.460;24.060;2023-02-05T11:17:23;100945.41;;;-2.81;100.00
61757;BME280;57225;61.460;24.060;2023-02-05T11:23:18;100943.34;;;-2.71;100.00
61757;BME280;57225;61.460;24.060;2023-02-05T11:26:09;100929.41;;;-2.69;100.00
61757;BME280;57225;61.460;24.060;2023-02-05T11:28:54;100924.41;;;-2.62;100.00
61757;BME280;57225;61.460;24.060;2023-02-05T11:31:38;100925.72;;;-2.60;100.00
61757;BME280;57225;61.460;24.060;2023-02-05T11:34:23;100919.59;;;-2.52;100.00
61757;BME280;57225;61.460;24.060;2023-02-05T11:37:14;100913.28;;;-2.66;100.00
61757;BME280;57225;61.460;24.060;2023-02-05T11:40:00;100918.72;;;-2.66;100.00
61757;BME280;57225;61.460;24.060;2023-02-05T11:42:49;100925.94;;;-2.56;100.00
61757;BME280;57225;61.460;24.060;2023-02-05T11:45:37;100911.13;;;-2.50;100.00
61757;BME280;57225;61.460;24.060;2023-02-05T11:48:36;100908.53;;;-2.41;100.00
61757;BME280;57225;61.460;24.060;2023-02-05T11:51:40;100926.53;;;-2.40;100.00
61757;BME280;57225;61.460;24.060;2023-02-05T11:54:31;100935.44;;;-2.35;100.00
61757;BME280;57225;61.460;24.060;2023-02-05T12:00:19;100912.00;;;-2.36;100.00
61757;BME280;57225;61.460;24.060;2023-02-05T12:03:25;100906.97;;;-2.29;100.00
61757;BME280;57225;61.460;24.060;2023-02-05T12:06:17;100914.63;;;-2.31;100.00
61757;BME280;57225;61.460;24.060;2023-02-05T12:09:03;100908.66;;;-2.33;100.00
61757;BME280;57225;61.460;24.060;2023-02-05T12:12:00;100897.66;;;-2.28;100.00
61757;BME280;57225;61.460;24.060;2023-02-05T12:15:21;100899.66;;;-2.33;100.00
61757;BME280;57225;61.460;24.060;2023-02-05T12:18:21;100887.25;;;-2.26;100.00
61757;BME280;57225;61.460;24.060;2023-02-05T12:27:56;100873.59;;;-2.26;100.00
61757;BME280;57225;61.460;24.060;2023-02-05T12:31:03;100866.06;;;-2.34;100.00
61757;BME280;57225;61.460;24.060;2023-02-05T12:37:27;100854.00;;;-2.28;100.00
61757;BME280;57225;61.460;24.060;2023-02-05T12:40:42;100850.06;;;-2.22;100.00
61757;BME280;57225;61.460;24.060;2023-02-05T12:43:41;100851.25;;;-2.28;100.00
61757;BME280;57225;61.460;24.060;2023-02-05T12:46:45;100852.94;;;-2.32;100.00
61757;BME280;57225;61.460;24.060;2023-02-05T12:56:52;100842.47;;;-2.25;100.00
61757;BME280;57225;61.460;24.060;2023-02-05T13:02:42;100834.38;;;-2.30;100.00
61757;BME280;57225;61.460;24.060;2023-02-05T13:05:32;100831.25;;;-2.23;100.00
61757;BME280;57225;61.460;24.060;2023-02-05T13:11:25;100831.66;;;-2.16;100.00
61757;BME280;57225;61.460;24.060;2023-02-05T13:14:33;100808.28;;;-2.22;100.00
61757;BME280;57225;61.460;24.060;2023-02-05T13:17:22;100824.28;;;-2.16;100.00
61757;BME280;57225;61.460;24.060;2023-02-05T13:20:41;100813.44;;;-2.21;100.00
61757;BME280;57225;61.460;24.060;2023-02-05T13:23:45;100813.38;;;-2.16;100.00
61757;BME280;57225;61.460;24.060;2023-02-05T13:26:49;100818.22;;;-2.13;100.00
61757;BME280;57225;61.460;24.060;2023-02-05T13:29:53;100827.69;;;-2.24;100.00
61757;BME280;57225;61.460;24.060;2023-02-05T13:32:41;100822.75;;;-2.22;100.00
61757;BME280;57225;61.460;24.060;2023-02-05T13:35:32;100818.69;;;-2.24;100.00
61757;BME280;57225;61.460;24.060;2023-02-05T13:51:07;100806.38;;;-2.22;100.00
61757;BME280;57225;61.460;24.060;2023-02-05T13:59:36;100806.84;;;-2.47;100.00
61757;BME280;57225;61.460;24.060;2023-02-05T14:05:13;100824.34;;;-2.34;100.00
61757;BME280;57225;61.460;24.060;2023-02-05T14:07:58;100813.09;;;-2.33;100.00
61757;BME280;57225;61.460;24.060;2023-02-05T14:10:57;100810.50;;;-2.24;100.00
61757;BME280;57225;61.460;24.060;2023-02-05T14:14:13;100827.09;;;-2.21;100.00
61757;BME280;57225;61.460;24.060;2023-02-05T14:23:14;100828.91;;;-2.30;100.00
61757;BME280;57225;61.460;24.060;2023-02-05T14:28:49;100804.81;;;-2.41;100.00
61757;BME280;57225;61.460;24.060;2023-02-05T14:31:47;100819.38;;;-2.32;100.00
61757;BME280;57225;61.460;24.060;2023-02-05T14:37:43;100820.81;;;-2.21;100.00
61757;BME280;57225;61.460;24.060;2023-02-05T14:40:35;100810.94;;;-2.17;100.00
61757;BME280;57225;61.460;24.060;2023-02-05T14:43:26;100821.16;;;-2.09;100.00
61757;BME280;57225;61.460;24.060;2023-02-05T14:52:38;100821.75;;;-2.12;100.00
61757;BME280;57225;61.460;24.060;2023-02-05T14:55:28;100814.56;;;-2.08;100.00
61757;BME280;57225;61.460;24.060;2023-02-05T15:04:44;100816.81;;;-1.96;100.00
61757;BME280;57225;61.460;24.060;2023-02-05T15:07:34;100810.97;;;-1.90;100.00
61757;BME280;57225;61.460;24.060;2023-02-05T15:10:22;100805.56;;;-1.95;100.00
61757;BME280;57225;61.460;24.060;2023-02-05T15:13:14;100819.03;;;-1.98;100.00
61757;BME280;57225;61.460;24.060;2023-02-05T15:16:15;100822.91;;;-1.86;100.00
61757;BME280;57225;61.460;24.060;2023-02-05T15:19:04;100826.03;;;-1.92;100.00
61757;BME280;57225;61.460;24.060;2023-02-05T15:21:50;100835.94;;;-1.96;100.00
61757;BME280;57225;61.460;24.060;2023-02-05T15:24:36;100818.25;;;-1.85;100.00
61757;BME280;57225;61.460;24.060;2023-02-05T15:27:25;100819.22;;;-1.95;100.00
61757;BME280;57225;61.460;24.060;2023-02-05T15:30:17;100822.78;;;-1.94;100.00
61757;BME280;57225;61.460;24.060;2023-02-05T15:33:08;100825.91;;;-1.87;100.00
61757;BME280;57225;61.460;24.060;2023-02-05T15:35:55;100810.03;;;-1.85;100.00
61757;BME280;57225;61.460;24.060;2023-02-05T15:38:47;100819.66;;;-1.74;100.00
61757;BME280;57225;61.460;24.060;2023-02-05T15:41:33;100808.13;;;-1.85;100.00
61757;BME280;57225;61.460;24.060;2023-02-05T15:44:30;100819.94;;;-1.89;100.00
61757;BME280;57225;61.460;24.060;2023-02-05T15:47:20;100827.16;;;-1.66;100.00
61757;BME280;57225;61.460;24.060;2023-02-05T15:50:08;100823.38;;;-1.56;100.00
61757;BME280;57225;61.460;24.060;2023-02-05T15:52:56;100814.81;;;-1.77;100.00
61757;BME280;57225;61.460;24.060;2023-02-05T15:55:40;100831.41;;;-1.74;100.00
61757;BME280;57225;61.460;24.060;2023-02-05T15:58:25;100827.03;;;-1.75;100.00
61757;BME280;57225;61.460;24.060;2023-02-05T16:01:10;100831.00;;;-1.67;100.00
61757;BME280;57225;61.460;24.060;2023-02-05T16:04:23;100833.44;;;-1.52;100.00
61757;BME280;57225;61.460;24.060;2023-02-05T16:07:18;100829.66;;;-1.42;100.00
61757;BME280;57225;61.460;24.060;2023-02-05T16:10:17;100829.78;;;-1.47;100.00
61757;BME280;57225;61.460;24.060;2023-02-05T16:13:12;100848.97;;;-1.39;100.00
61757;BME280;57225;61.460;24.060;2023-02-05T16:18:54;100860.53;;;-1.42;100.00
61757;BME280;57225;61.460;24.060;2023-02-05T16:21:48;100843.50;;;-1.39;100.00
61757;BME280;57225;61.460;24.060;2023-02-05T16:24:37;100862.16;;;-1.41;100.00
61757;BME280;57225;61.460;24.060;2023-02-05T16:30:19;100850.50;;;-1.33;100.00
61757;BME280;57225;61.460;24.060;2023-02-05T16:33:40;100846.84;;;-1.28;100.00
61757;BME280;57225;61.460;24.060;2023-02-05T16:36:32;100856.78;;;-1.32;100.00
61757;BME280;57225;61.460;24.060;2023-02-05T16:39:25;100856.88;;;-1.24;100.00